sensor_id;sensor_type;location;lat;lon;timestamp;P1;durP1;ratioP1;P2;durP2;ratioP2
31302;SDS011;51116;52.084;5.426;2022-07-09T06:53:00;8.40;;;2.58;;
31302;SDS011;51116;52.084;5.426;2022-07-09T06:55:27;8.55;;;3.33;;
31302;SDS011;51116;52.084;5.426;2022-07-09T06:57:54;7.65;;;3.88;;
31302;SDS011;51116;52.084;5.426;2022-07-09T07:00:22;9.80;;;4.10;;
31302;SDS011;51116;52.084;5.426;2022-07-09T07:02:49;6.85;;;4.57;;
31302;SDS011;51116;52.084;5.426;2022-07-09T13:07:15;3.53;;;1.05;;
31302;SDS011;51116;52.084;5.426;2022-07-09T13:09:42;2.33;;;1.00;;
31302;SDS011;51116;52.084;5.426;2022-07-09T13:12:08;3.35;;;1.20;;
31302;SDS011;51116;52.084;5.426;2022-07-09T13:14:35;5.28;;;1.52;;
31302;SDS011;51116;52.084;5.426;2022-07-09T13:17:02;4.03;;;1.20;;
31302;SDS011;51116;52.084;5.426;2022-07-09T13:19:29;2.40;;;1.00;;
31302;SDS011;51116;52.084;5.426;2022-07-09T13:21:56;6.72;;;1.38;;
31302;SDS011;51116;52.084;5.426;2022-07-09T13:24:24;2.13;;;1.10;;
31302;SDS011;51116;52.084;5.426;2022-07-09T13:26:51;3.30;;;1.38;;
31302;SDS011;51116;52.084;5.426;2022-07-09T13:29:18;5.90;;;1.23;;
31302;SDS011;51116;52.084;5.426;2022-07-09T13:31:45;8.00;;;1.20;;
31302;SDS011;51116;52.084;5.426;2022-07-09T13:34:12;8.30;;;1.48;;
31302;SDS011;51116;52.084;5.426;2022-07-09T13:36:39;3.92;;;1.20;;
31302;SDS011;51116;52.084;5.426;2022-07-09T13:39:06;10.60;;;1.40;;
31302;SDS011;51116;52.084;5.426;2022-07-09T13:41:34;8.32;;;1.85;;
31302;SDS011;51116;52.084;5.426;2022-07-09T13:44:01;8.93;;;2.00;;
31302;SDS011;51116;52.084;5.426;2022-07-09T13:46:28;8.85;;;1.95;;
31302;SDS011;51116;52.084;5.426;2022-07-09T13:48:55;6.70;;;1.63;;
31302;SDS011;51116;52.084;5.426;2022-07-09T13:51:22;5.25;;;1.50;;
31302;SDS011;51116;52.084;5.426;2022-07-09T13:53:48;5.32;;;1.48;;
31302;SDS011;51116;52.084;5.426;2022-07-09T13:56:15;8.70;;;1.70;;
31302;SDS011;51116;52.084;5.426;2022-07-09T13:58:44;12.95;;;1.75;;
31302;SDS011;51116;52.084;5.426;2022-07-09T14:01:10;5.70;;;1.50;;
31302;SDS011;51116;52.084;5.426;2022-07-09T14:03:37;6.03;;;1.38;;
31302;SDS011;51116;52.084;5.426;2022-07-09T14:06:04;7.80;;;1.33;;
31302;SDS011;51116;52.084;5.426;2022-07-09T14:08:31;7.88;;;1.40;;
31302;SDS011;51116;52.084;5.426;2022-07-09T14:10:58;3.75;;;1.40;;
31302;SDS011;51116;52.084;5.426;2022-07-09T14:13:25;6.07;;;1.50;;
31302;SDS011;51116;52.084;5.426;2022-07-09T14:15:56;5.20;;;1.65;;
31302;SDS011;51116;52.084;5.426;2022-07-09T14:18:25;3.78;;;1.45;;
31302;SDS011;51116;52.084;5.426;2022-07-09T14:20:52;9.90;;;1.58;;
31302;SDS011;51116;52.084;5.426;2022-07-09T14:23:18;7.93;;;1.27;;
31302;SDS011;51116;52.084;5.426;2022-07-09T14:25:45;4.82;;;1.20;;
31302;SDS011;51116;52.084;5.426;2022-07-09T14:28:12;3.85;;;1.10;;
31302;SDS011;51116;52.084;5.426;2022-07-09T14:30:40;6.80;;;1.30;;
31302;SDS011;51116;52.084;5.426;2022-07-09T14:33:08;4.25;;;1.13;;
31302;SDS011;51116;52.084;5.426;2022-07-09T14:35:35;5.57;;;1.35;;
31302;SDS011;51116;52.084;5.426;2022-07-09T14:38:01;4.57;;;1.10;;
31302;SDS011;51116;52.084;5.426;2022-07-09T14:40:28;3.75;;;0.98;;
31302;SDS011;51116;52.084;5.426;2022-07-09T14:42:55;6.32;;;1.05;;
31302;SDS011;51116;52.084;5.426;2022-07-09T14:45:22;5.72;;;1.27;;
31302;SDS011;51116;52.084;5.426;2022-07-09T14:47:51;4.15;;;1.20;;
31302;SDS011;51116;52.084;5.426;2022-07-09T14:50:19;4.15;;;1.38;;
31302;SDS011;51116;52.084;5.426;2022-07-09T14:52:46;4.18;;;1.10;;
31302;SDS011;51116;52.084;5.426;2022-07-09T14:55:13;5.32;;;1.60;;
31302;SDS011;51116;52.084;5.426;2022-07-09T14:57:40;2.97;;;1.17;;
31302;SDS011;51116;52.084;5.426;2022-07-09T15:00:08;5.65;;;1.23;;
31302;SDS011;51116;52.084;5.426;2022-07-09T15:02:35;5.15;;;1.50;;
31302;SDS011;51116;52.084;5.426;2022-07-09T15:05:02;4.97;;;1.40;;
31302;SDS011;51116;52.084;5.426;2022-07-09T15:07:31;4.32;;;1.17;;
31302;SDS011;51116;52.084;5.426;2022-07-09T15:09:59;6.65;;;1.38;;
31302;SDS011;51116;52.084;5.426;2022-07-09T15:12:26;3.45;;;0.90;;
31302;SDS011;51116;52.084;5.426;2022-07-09T15:14:53;3.63;;;1.05;;
31302;SDS011;51116;52.084;5.426;2022-07-09T15:17:20;6.78;;;1.30;;
31302;SDS011;51116;52.084;5.426;2022-07-09T15:19:47;7.30;;;1.40;;
31302;SDS011;51116;52.084;5.426;2022-07-09T15:22:14;3.03;;;1.42;;
31302;SDS011;51116;52.084;5.426;2022-07-09T15:24:43;4.75;;;1.20;;
31302;SDS011;51116;52.084;5.426;2022-07-09T15:27:09;3.75;;;1.42;;
31302;SDS011;51116;52.084;5.426;2022-07-09T15:29:36;4.90;;;1.30;;
31302;SDS011;51116;52.084;5.426;2022-07-09T15:32:03;4.22;;;1.13;;
31302;SDS011;51116;52.084;5.426;2022-07-09T15:34:30;5.90;;;1.50;;
31302;SDS011;51116;52.084;5.426;2022-07-09T15:36:57;3.40;;;1.38;;
31302;SDS011;51116;52.084;5.426;2022-07-09T15:39:25;4.82;;;1.48;;
31302;SDS011;51116;52.084;5.426;2022-07-09T15:41:54;5.07;;;1.63;;
31302;SDS011;51116;52.084;5.426;2022-07-09T15:44:21;7.80;;;1.50;;
31302;SDS011;51116;52.084;5.426;2022-07-09T15:46:47;7.45;;;1.60;;
31302;SDS011;51116;52.084;5.426;2022-07-09T15:49:14;4.95;;;1.77;;
31302;SDS011;51116;52.084;5.426;2022-07-09T15:51:41;5.85;;;1.38;;
31302;SDS011;51116;52.084;5.426;2022-07-09T15:54:13;4.93;;;1.40;;
31302;SDS011;51116;52.084;5.426;2022-07-09T15:56:40;5.82;;;1.38;;
31302;SDS011;51116;52.084;5.426;2022-07-09T15:59:08;10.13;;;1.75;;
31302;SDS011;51116;52.084;5.426;2022-07-09T16:01:35;5.82;;;1.73;;
31302;SDS011;51116;52.084;5.426;2022-07-09T16:04:02;7.57;;;1.33;;
31302;SDS011;51116;52.084;5.426;2022-07-09T16:06:30;4.93;;;1.30;;
31302;SDS011;51116;52.084;5.426;2022-07-09T16:08:57;6.43;;;1.63;;
31302;SDS011;51116;52.084;5.426;2022-07-09T16:11:24;10.23;;;1.85;;
31302;SDS011;51116;52.084;5.426;2022-07-09T16:14:09;8.05;;;1.60;;
31302;SDS011;51116;52.084;5.426;2022-07-09T16:16:37;6.95;;;1.70;;
31302;SDS011;51116;52.084;5.426;2022-07-09T16:19:04;12.57;;;1.80;;
31302;SDS011;51116;52.084;5.426;2022-07-09T16:21:31;8.35;;;1.90;;
31302;SDS011;51116;52.084;5.426;2022-07-09T16:23:58;10.85;;;2.30;;
31302;SDS011;51116;52.084;5.426;2022-07-09T16:26:25;7.18;;;1.75;;
31302;SDS011;51116;52.084;5.426;2022-07-09T16:28:52;6.40;;;1.80;;
31302;SDS011;51116;52.084;5.426;2022-07-09T16:31:20;9.18;;;1.60;;
31302;SDS011;51116;52.084;5.426;2022-07-09T16:33:47;7.47;;;1.60;;
31302;SDS011;51116;52.084;5.426;2022-07-09T16:36:13;7.70;;;1.88;;
31302;SDS011;51116;52.084;5.426;2022-07-09T16:38:41;4.57;;;1.45;;
31302;SDS011;51116;52.084;5.426;2022-07-09T16:41:08;5.20;;;1.50;;
31302;SDS011;51116;52.084;5.426;2022-07-09T16:43:35;4.55;;;1.67;;
31302;SDS011;51116;52.084;5.426;2022-07-09T16:46:01;2.92;;;1.25;;
31302;SDS011;51116;52.084;5.426;2022-07-09T16:48:36;6.65;;;1.50;;
31302;SDS011;51116;52.084;5.426;2022-07-09T16:51:03;8.45;;;1.83;;
31302;SDS011;51116;52.084;5.426;2022-07-09T16:53:31;4.72;;;1.42;;
31302;SDS011;51116;52.084;5.426;2022-07-09T16:55:58;4.93;;;1.40;;
31302;SDS011;51116;52.084;5.426;2022-07-09T16:58:25;7.07;;;1.30;;
31302;SDS011;51116;52.084;5.426;2022-07-09T17:00:52;6.20;;;1.30;;
31302;SDS011;51116;52.084;5.426;2022-07-09T17:03:19;4.82;;;1.40;;
31302;SDS011;51116;52.084;5.426;2022-07-09T17:05:47;5.28;;;1.30;;
